Time;durP1;ratioP1;P1;durP2;ratioP2;P2;SDS_P1;SDS_P2;PMS_P1;PMS_P2;Temp;Humidity;BMP_temperature;BMP_pressure;BME280_temperature;BME280_humidity;BME280_pressure;Samples;Min_cycle;Max_cycle;Signal;HPM_P1;HPM_P2
2021/09/13 00:00:15;;;;;;;;;30.00;30.00;23.80;33.70;;;;;;4843789;29;8860;-67
2021/09/13 00:02:41;;;;;;;;;32.00;31.33;23.70;33.50;;;;;;4844905;29;8822;-64
2021/09/13 00:05:07;;;;;;;;;29.33;29.33;23.70;33.50;;;;;;4849594;29;9531;-68
2021/09/13 00:07:33;;;;;;;;;24.00;24.00;23.70;33.60;;;;;;4849777;29;8804;-68
2021/09/13 00:09:59;;;;;;;;;27.00;27.00;23.70;33.60;;;;;;4848518;29;8824;-65
2021/09/13 00:12:25;;;;;;;;;24.00;24.00;23.70;33.70;;;;;;4849364;29;8848;-64
2021/09/13 00:14:50;;;;;;;;;25.00;25.00;23.60;33.70;;;;;;4849418;29;8825;-65
2021/09/13 00:17:16;;;;;;;;;33.00;31.67;23.60;33.80;;;;;;4848524;29;8914;-68
2021/09/13 00:19:42;;;;;;;;;28.33;28.33;23.70;34.00;;;;;;4849730;29;8812;-67
2021/09/13 00:22:08;;;;;;;;;28.67;28.67;23.60;34.00;;;;;;4849695;29;8792;-71
2021/09/13 00:24:33;;;;;;;;;26.67;26.67;23.50;33.90;;;;;;4849692;29;8973;-66
2021/09/13 00:26:59;;;;;;;;;25.67;25.67;23.50;33.90;;;;;;4849430;29;9443;-66
2021/09/13 00:29:25;;;;;;;;;28.33;28.33;23.50;34.10;;;;;;4849634;29;8879;-63
2021/09/13 00:31:51;;;;;;;;;30.67;30.67;23.50;34.10;;;;;;4849302;29;8832;-66
2021/09/13 00:34:16;;;;;;;;;27.67;27.67;23.40;34.10;;;;;;4849586;29;8816;-63
2021/09/13 00:36:42;;;;;;;;;28.67;28.67;23.30;33.60;;;;;;4849267;29;8820;-63
2021/09/13 00:39:08;;;;;;;;;20.33;20.33;23.30;33.60;;;;;;4849523;29;8780;-67
2021/09/13 00:41:34;;;;;;;;;24.67;24.67;23.30;34.60;;;;;;4849334;29;8816;-64
2021/09/13 00:44:01;;;;;;;;;27.00;27.00;23.30;34.60;;;;;;4849521;29;8828;-64
2021/09/13 00:46:27;;;;;;;;;24.67;24.67;23.30;34.50;;;;;;4849517;29;8796;-64
2021/09/13 00:48:53;;;;;;;;;29.00;29.00;23.30;34.50;;;;;;4849505;29;8811;-64
2021/09/13 00:51:19;;;;;;;;;25.67;25.33;23.40;34.60;;;;;;4849400;29;8867;-63
2021/09/13 00:53:45;;;;;;;;;30.00;30.00;23.40;34.50;;;;;;4849167;29;8827;-64
2021/09/13 00:56:11;;;;;;;;;32.00;32.00;23.40;34.40;;;;;;4848188;29;8788;-65
2021/09/13 00:58:37;;;;;;;;;26.67;26.67;23.40;34.60;;;;;;4849419;29;8800;-64
2021/09/13 01:01:04;;;;;;;;;27.67;27.67;23.40;34.60;;;;;;4849203;29;8808;-64
2021/09/13 01:03:31;;;;;;;;;27.00;27.00;23.40;34.60;;;;;;4849157;29;8804;-64
2021/09/13 01:05:57;;;;;;;;;32.00;31.00;23.30;34.90;;;;;;4849370;29;8804;-64
2021/09/13 01:08:24;;;;;;;;;28.33;28.33;23.30;34.70;;;;;;4849112;29;9482;-66
2021/09/13 01:10:53;;;;;;;;;29.67;29.67;23.30;34.80;;;;;;4848991;29;8811;-64
2021/09/13 01:13:19;;;;;;;;;30.00;30.00;23.30;35.00;;;;;;4848873;29;8856;-64
2021/09/13 01:15:45;;;;;;;;;34.33;33.00;23.30;35.30;;;;;;4846119;29;8803;-66
2021/09/13 01:18:11;;;;;;;;;31.00;31.00;23.20;35.60;;;;;;4846045;29;8816;-64
2021/09/13 01:20:37;;;;;;;;;27.00;27.00;23.10;35.90;;;;;;4846064;29;8819;-66
2021/09/13 01:23:11;;;;;;;;;31.67;31.67;23.10;36.10;;;;;;4845924;29;8789;-65
2021/09/13 01:25:37;;;;;;;;;29.00;29.00;23.10;36.20;;;;;;4846007;29;8784;-65
2021/09/13 01:28:03;;;;;;;;;30.67;30.67;23.10;36.40;;;;;;4845958;29;8808;-65
2021/09/13 01:30:31;;;;;;;;;36.33;35.00;23.10;36.30;;;;;;4845816;29;8866;-66
2021/09/13 01:32:57;;;;;;;;;29.33;29.33;23.20;36.30;;;;;;4845834;29;8930;-67
2021/09/13 01:35:22;;;;;;;;;32.00;31.67;23.10;36.40;;;;;;4845899;29;8868;-67
2021/09/13 01:37:48;;;;;;;;;34.67;33.67;23.10;36.60;;;;;;4845723;29;8808;-65
2021/09/13 01:40:14;;;;;;;;;30.00;30.00;23.10;36.60;;;;;;4845982;29;8819;-63
2021/09/13 01:42:40;;;;;;;;;33.67;32.67;23.10;36.60;;;;;;4845612;29;8836;-65
2021/09/13 01:45:06;;;;;;;;;32.33;31.33;23.10;36.60;;;;;;4844693;29;8827;-63
2021/09/13 01:47:33;;;;;;;;;33.00;32.00;23.10;36.70;;;;;;4845837;29;8899;-64
2021/09/13 01:49:59;;;;;;;;;34.33;33.00;23.10;36.70;;;;;;4845641;29;8793;-67
2021/09/13 01:52:24;;;;;;;;;35.67;34.33;23.20;36.70;;;;;;4845366;29;8840;-70
2021/09/13 01:54:50;;;;;;;;;34.33;32.33;23.10;36.80;;;;;;4845696;29;8798;-65
2021/09/13 01:57:16;;;;;;;;;34.67;33.00;23.10;36.90;;;;;;4845471;29;8836;-64
2021/09/13 01:59:42;;;;;;;;;33.00;32.00;23.10;36.90;;;;;;4845501;29;8934;-63
2021/09/13 02:02:07;;;;;;;;;34.33;33.00;23.10;36.90;;;;;;4845581;29;8804;-65
2021/09/13 02:04:33;;;;;;;;;35.33;34.33;23.00;36.80;;;;;;4845571;29;8852;-67
2021/09/13 02:06:59;;;;;;;;;34.67;32.33;23.00;37.10;;;;;;4845351;29;9284;-65
2021/09/13 02:09:24;;;;;;;;;31.33;31.00;23.00;37.20;;;;;;4845556;29;8788;-68
2021/09/13 02:11:50;;;;;;;;;37.00;34.33;23.00;37.00;;;;;;4845047;29;8836;-65
2021/09/13 02:14:16;;;;;;;;;34.00;33.00;22.90;37.10;;;;;;4845166;29;8960;-63
2021/09/13 02:16:42;;;;;;;;;36.33;33.67;22.80;37.00;;;;;;4845315;29;8800;-64
2021/09/13 02:19:08;;;;;;;;;39.00;34.67;22.80;36.80;;;;;;4845328;29;8804;-65
2021/09/13 02:21:34;;;;;;;;;33.67;32.67;22.70;36.60;;;;;;4845014;29;9416;-64
2021/09/13 02:23:59;;;;;;;;;34.67;33.33;22.80;36.80;;;;;;4844916;29;8820;-63
2021/09/13 02:26:25;;;;;;;;;39.00;36.00;22.70;36.90;;;;;;4844104;29;8820;-66
2021/09/13 02:28:51;;;;;;;;;32.00;31.67;22.80;36.90;;;;;;4845108;29;8816;-66
2021/09/13 02:31:17;;;;;;;;;36.33;34.00;22.80;36.90;;;;;;4844821;29;8828;-66
2021/09/13 02:33:43;;;;;;;;;37.33;35.00;22.70;36.90;;;;;;4846154;29;9603;-64
2021/09/13 02:36:08;;;;;;;;;36.67;34.33;22.70;37.00;;;;;;4861940;29;8813;-64
2021/09/13 02:38:34;;;;;;;;;34.33;33.00;22.50;37.30;;;;;;4863192;29;8798;-65
2021/09/13 02:41:00;;;;;;;;;37.00;35.33;22.50;37.60;;;;;;4863095;29;8802;-65
2021/09/13 02:43:26;;;;;;;;;31.67;31.67;22.40;37.60;;;;;;4863045;29;8829;-66
2021/09/13 02:45:52;;;;;;;;;33.33;32.33;22.10;37.80;;;;;;4863277;29;8802;-65
2021/09/13 02:48:18;;;;;;;;;31.33;31.33;22.20;38.00;;;;;;4862971;29;8900;-66
2021/09/13 02:50:44;;;;;;;;;28.67;28.67;22.10;37.90;;;;;;4862845;29;8981;-65
2021/09/13 02:53:10;;;;;;;;;30.67;30.67;22.20;37.90;;;;;;4862972;29;8820;-64
2021/09/13 02:55:36;;;;;;;;;30.67;30.67;22.00;37.80;;;;;;4862892;29;8817;-65
2021/09/13 02:58:02;;;;;;;;;29.33;29.33;22.00;38.10;;;;;;4863166;29;9444;-65
2021/09/13 03:00:27;;;;;;;;;27.00;27.00;22.00;38.30;;;;;;4862862;29;8801;-65
2021/09/13 03:02:53;;;;;;;;;30.00;29.67;22.10;38.20;;;;;;4862720;29;8989;-64
2021/09/13 03:05:19;;;;;;;;;29.67;29.67;22.10;38.00;;;;;;4862697;29;8837;-67
2021/09/13 03:07:45;;;;;;;;;33.00;32.00;22.20;37.90;;;;;;4862909;29;8770;-63
2021/09/13 03:10:11;;;;;;;;;28.33;28.33;22.30;37.90;;;;;;4862594;29;8794;-64
2021/09/13 03:12:37;;;;;;;;;32.00;31.67;22.20;37.70;;;;;;4862664;29;9504;-62
2021/09/13 03:15:05;;;;;;;;;28.00;28.00;22.20;37.90;;;;;;4862513;29;8943;-64
2021/09/13 03:17:31;;;;;;;;;33.00;32.33;22.20;37.90;;;;;;4862651;29;8793;-62
2021/09/13 03:19:57;;;;;;;;;30.33;30.33;22.10;37.80;;;;;;4862719;29;8805;-62
2021/09/13 03:22:23;;;;;;;;;29.33;29.33;22.00;37.90;;;;;;4862411;29;8861;-63
2021/09/13 03:24:49;;;;;;;;;31.67;31.33;21.80;38.40;;;;;;4862493;29;8932;-62
2021/09/13 03:27:15;;;;;;;;;29.00;29.00;21.80;38.60;;;;;;4862429;29;8790;-64
2021/09/13 03:29:40;;;;;;;;;30.00;30.00;21.80;38.80;;;;;;4862222;29;8813;-62
2021/09/13 03:32:06;;;;;;;;;34.00;33.00;21.80;38.70;;;;;;4862256;29;8863;-63
2021/09/13 03:34:32;;;;;;;;;22.67;22.67;21.80;38.70;;;;;;4862256;29;8789;-64
2021/09/13 03:37:02;;;;;;;;;31.00;31.00;21.90;38.50;;;;;;4862477;29;8789;-63
2021/09/13 03:39:29;;;;;;;;;31.00;31.00;21.80;38.50;;;;;;4861972;29;8801;-64
2021/09/13 03:41:54;;;;;;;;;32.33;31.67;21.80;38.70;;;;;;4862385;29;8790;-63
2021/09/13 03:44:20;;;;;;;;;34.33;32.33;21.80;38.80;;;;;;4862520;29;8900;-63
2021/09/13 03:46:46;;;;;;;;;29.00;29.00;21.80;38.80;;;;;;4862332;29;8794;-63
2021/09/13 03:49:12;;;;;;;;;33.00;32.33;21.90;38.70;;;;;;4862131;29;8789;-65
2021/09/13 03:51:38;;;;;;;;;35.67;33.00;21.90;38.70;;;;;;4862016;29;8860;-65
2021/09/13 03:54:04;;;;;;;;;34.00;33.33;21.90;38.70;;;;;;4862039;29;8810;-63
2021/09/13 03:56:30;;;;;;;;;29.67;29.67;21.90;38.80;;;;;;4862034;29;8813;-64
2021/09/13 03:58:55;;;;;;;;;31.33;31.00;21.80;38.90;;;;;;4862291;29;8798;-63
2021/09/13 04:01:22;;;;;;;;;30.67;30.67;21.80;39.20;;;;;;4861903;29;9428;-66
2021/09/13 04:03:50;;;;;;;;;31.33;31.33;21.70;39.10;;;;;;4862209;29;8797;-63
2021/09/13 04:12:00;;;;;;;;;26.67;26.67;21.50;39.80;;;;;;4859852;29;8824;-65
2021/09/13 04:14:28;;;;;;;;;30.33;30.33;21.40;39.80;;;;;;4859674;29;9015;-64
2021/09/13 04:16:55;;;;;;;;;30.00;30.00;21.40;39.90;;;;;;4859825;29;8808;-62
2021/09/13 04:19:22;;;;;;;;;34.00;32.00;21.40;40.10;;;;;;4859723;29;8961;-65
2021/09/13 04:21:49;;;;;;;;;27.00;27.00;21.40;40.80;;;;;;4859701;29;8804;-65
2021/09/13 04:24:15;;;;;;;;;31.33;31.33;21.40;39.90;;;;;;4859664;29;8927;-63
2021/09/13 04:26:40;;;;;;;;;26.33;26.33;21.30;39.90;;;;;;4859642;29;8958;-65
2021/09/13 04:29:07;;;;;;;;;38.67;35.67;21.40;39.70;;;;;;4859647;29;8810;-62
2021/09/13 04:31:33;;;;;;;;;32.67;31.67;21.40;39.70;;;;;;4859476;29;8828;-62
2021/09/13 04:33:59;;;;;;;;;33.33;32.33;21.50;39.40;;;;;;4859655;29;8806;-63
2021/09/13 04:36:24;;;;;;;;;33.33;32.67;21.60;39.40;;;;;;4859559;29;8812;-63
2021/09/13 04:38:50;;;;;;;;;34.67;32.67;21.70;40.20;;;;;;4853220;29;8819;-65
2021/09/13 04:41:17;;;;;;;;;38.50;34.75;21.80;38.80;;;;;;4839720;29;8826;-62
2021/09/13 04:43:42;;;;;;;;;35.00;33.00;21.60;38.80;;;;;;4839186;29;8835;-65
2021/09/13 04:46:08;;;;;;;;;39.67;35.67;21.60;39.00;;;;;;4834084;29;8809;-66
2021/09/13 04:48:34;;;;;;;;;34.67;33.33;21.70;39.00;;;;;;4832888;29;8814;-65
2021/09/13 04:51:00;;;;;;;;;39.33;35.67;21.70;39.00;;;;;;4827063;29;8844;-63
2021/09/13 04:53:26;;;;;;;;;34.00;32.67;21.80;39.00;;;;;;4828127;29;8917;-63
2021/09/13 04:55:52;;;;;;;;;36.67;34.67;21.80;39.10;;;;;;4828123;29;8819;-63
2021/09/13 04:58:17;;;;;;;;;39.00;36.00;21.80;38.90;;;;;;4827945;29;8817;-64
2021/09/13 05:00:43;;;;;;;;;36.67;33.67;21.90;38.70;;;;;;4827920;29;8806;-65
2021/09/13 05:03:09;;;;;;;;;33.33;32.33;21.90;38.80;;;;;;4827929;29;8802;-63
2021/09/13 05:05:35;;;;;;;;;33.67;32.67;21.80;38.60;;;;;;4830483;29;8811;-65
2021/09/13 05:08:01;;;;;;;;;25.67;25.67;21.70;38.60;;;;;;4835796;29;8842;-64
2021/09/13 05:10:27;;;;;;;;;36.67;34.00;21.80;38.70;;;;;;4827839;29;8799;-65
2021/09/13 05:12:53;;;;;;;;;35.00;33.33;21.70;38.50;;;;;;4827715;29;8937;-65
2021/09/13 05:15:19;;;;;;;;;35.00;34.00;21.60;38.90;;;;;;4827729;29;8865;-65
2021/09/13 05:17:45;;;;;;;;;34.33;34.33;21.70;38.60;;;;;;4833239;29;8789;-63
2021/09/13 05:20:12;;;;;;;;;30.67;30.67;21.60;38.80;;;;;;4845745;29;8938;-64
2021/09/13 05:22:37;;;;;;;;;37.67;33.67;21.60;38.80;;;;;;4845865;29;8816;-62
2021/09/13 05:25:04;;;;;;;;;38.00;36.00;21.50;39.00;;;;;;4845924;29;8816;-65
2021/09/13 05:27:30;;;;;;;;;28.33;28.33;21.50;39.00;;;;;;4844872;29;8808;-63
2021/09/13 05:29:55;;;;;;;;;37.67;34.67;21.40;39.10;;;;;;4845162;29;8828;-64
2021/09/13 05:32:21;;;;;;;;;35.67;34.67;21.50;39.10;;;;;;4845043;29;8835;-63
2021/09/13 05:34:47;;;;;;;;;36.33;33.33;21.60;39.00;;;;;;4845050;29;8819;-63
2021/09/13 05:37:13;;;;;;;;;35.00;33.00;21.50;39.20;;;;;;4844390;29;8826;-64
2021/09/13 05:39:39;;;;;;;;;31.00;30.00;21.50;39.30;;;;;;4841835;29;8823;-65
2021/09/13 05:42:05;;;;;;;;;30.33;30.00;21.50;39.40;;;;;;4842867;29;8804;-64
2021/09/13 05:44:31;;;;;;;;;33.67;32.00;21.50;39.50;;;;;;4842055;29;8836;-65
2021/09/13 05:46:57;;;;;;;;;31.33;30.33;21.60;39.40;;;;;;4838397;29;8824;-62
2021/09/13 05:49:23;;;;;;;;;36.33;33.67;21.80;39.20;;;;;;4843466;29;8847;-64
2021/09/13 05:51:52;;;;;;;;;36.67;34.00;21.90;39.00;;;;;;4843126;29;8901;-63
2021/09/13 05:54:22;;;;;;;;;29.67;28.67;22.00;39.00;;;;;;4842815;29;8938;-63
2021/09/13 05:56:50;;;;;;;;;33.00;33.00;22.10;38.90;;;;;;4843194;29;8816;-63
2021/09/13 05:59:16;;;;;;;;;37.33;35.33;22.20;38.80;;;;;;4843207;29;8815;-63
2021/09/13 06:01:42;;;;;;;;;29.00;29.00;22.40;38.70;;;;;;4842738;29;8839;-62
2021/09/13 06:04:08;;;;;;;;;32.33;32.00;22.50;38.50;;;;;;4844505;29;8808;-66
2021/09/13 06:06:34;;;;;;;;;34.00;32.00;22.50;38.50;;;;;;4844003;29;8930;-63
2021/09/13 06:08:59;;;;;;;;;33.33;32.33;22.60;38.50;;;;;;4837627;29;8819;-64
2021/09/13 06:11:27;;;;;;;;;28.67;28.67;22.70;38.40;;;;;;4836932;29;8836;-64
2021/09/13 06:13:55;;;;;;;;;34.33;33.33;22.80;38.30;;;;;;4844426;29;8887;-63
2021/09/13 06:16:22;;;;;;;;;30.33;30.33;23.00;38.20;;;;;;4837479;29;8818;-65
2021/09/13 06:18:48;;;;;;;;;33.67;32.33;23.10;38.00;;;;;;4826891;29;9576;-68
2021/09/13 06:21:14;;;;;;;;;33.33;32.33;23.20;37.90;;;;;;4826832;29;8790;-65
2021/09/13 06:23:39;;;;;;;;;35.33;33.67;23.30;38.00;;;;;;4839235;29;8824;-66
2021/09/13 06:26:05;;;;;;;;;36.33;34.33;23.40;38.00;;;;;;4844885;29;8800;-66
2021/09/13 06:28:31;;;;;;;;;31.67;31.00;23.50;38.10;;;;;;4840405;29;8799;-65
2021/09/13 06:30:57;;;;;;;;;36.00;34.00;23.70;38.20;;;;;;4826537;29;8917;-64
2021/09/13 06:33:23;;;;;;;;;33.67;32.67;23.70;37.70;;;;;;4838729;29;8800;-63
2021/09/13 06:35:48;;;;;;;;;34.33;33.00;23.80;37.50;;;;;;4844748;29;8819;-64
2021/09/13 06:38:14;;;;;;;;;32.33;31.67;23.90;37.50;;;;;;4844564;29;8792;-64
2021/09/13 06:40:40;;;;;;;;;30.67;30.33;24.00;37.50;;;;;;4844753;29;8840;-65
2021/09/13 06:43:07;;;;;;;;;28.33;28.33;24.00;37.10;;;;;;4844565;29;8863;-64
2021/09/13 06:45:41;;;;;;;;;27.00;27.00;24.00;37.00;;;;;;4844805;29;8906;-65
2021/09/13 06:48:09;;;;;;;;;4.67;4.67;24.10;37.20;;;;;;4844597;29;8800;-65
2021/09/13 06:50:35;;;;;;;;;26.00;26.00;24.00;38.30;;;;;;4844649;29;8800;-65
2021/09/13 06:53:01;;;;;;;;;24.67;24.67;24.10;38.40;;;;;;4843669;29;8804;-67
2021/09/13 06:55:27;;;;;;;;;23.67;22.33;24.10;36.10;;;;;;4844301;29;8928;-64
2021/09/13 06:57:53;;;;;;;;;22.67;22.67;24.10;35.70;;;;;;4844300;29;8827;-64
2021/09/13 07:00:21;;;;;;;;;21.67;21.67;24.10;35.60;;;;;;4844484;29;8808;-65
2021/09/13 07:02:47;;;;;;;;;23.00;23.00;24.30;35.10;;;;;;4844366;29;8889;-63
2021/09/13 07:05:14;;;;;;;;;22.00;22.00;24.40;35.20;;;;;;4844261;29;8800;-63
2021/09/13 07:07:40;;;;;;;;;25.33;25.33;24.50;34.70;;;;;;4844155;29;9190;-66
2021/09/13 07:10:08;;;;;;;;;26.67;26.67;24.50;34.70;;;;;;4834998;29;8851;-64
2021/09/13 07:12:36;;;;;;;;;25.67;25.67;24.70;34.70;;;;;;4834274;29;8870;-66
2021/09/13 07:15:04;;;;;;;;;24.67;24.67;24.80;34.30;;;;;;4826536;29;8833;-63
2021/09/13 07:17:30;;;;;;;;;22.33;22.33;24.80;34.50;;;;;;4831082;29;8970;-68
2021/09/13 07:19:56;;;;;;;;;30.67;30.67;24.80;33.60;;;;;;4832042;29;9018;-65
2021/09/13 07:22:22;;;;;;;;;20.00;20.00;24.90;33.50;;;;;;4834264;29;8832;-64
2021/09/13 07:24:48;;;;;;;;;20.33;20.33;25.00;33.20;;;;;;4829471;29;8847;-63
2021/09/13 07:27:14;;;;;;;;;22.67;22.67;25.10;33.50;;;;;;4832604;29;8859;-65
2021/09/13 07:29:41;;;;;;;;;20.00;20.00;25.20;33.20;;;;;;4828416;29;8865;-65
2021/09/13 07:32:06;;;;;;;;;21.33;21.33;25.30;32.50;;;;;;4825282;29;8849;-61
2021/09/13 07:34:34;;;;;;;;;19.67;19.67;25.20;32.10;;;;;;4825610;29;8914;-63
2021/09/13 07:37:00;;;;;;;;;21.33;21.33;25.30;32.20;;;;;;4825507;29;8834;-64
2021/09/13 07:39:28;;;;;;;;;20.33;20.33;25.30;32.30;;;;;;4825493;29;8803;-63
2021/09/13 07:41:54;;;;;;;;;22.00;22.00;25.50;32.70;;;;;;4837332;29;8796;-62
2021/09/13 07:44:20;;;;;;;;;22.33;22.33;25.70;32.10;;;;;;4843910;29;8828;-64
2021/09/13 07:46:46;;;;;;;;;18.00;18.00;25.80;32.10;;;;;;4843071;29;8800;-63
2021/09/13 07:49:12;;;;;;;;;17.67;17.67;25.80;31.50;;;;;;4843043;29;8796;-65
2021/09/13 07:51:38;;;;;;;;;17.33;17.33;25.70;31.00;;;;;;4843046;29;8828;-71
2021/09/13 07:54:06;;;;;;;;;24.33;24.33;25.60;30.90;;;;;;4844000;29;9471;-72
2021/09/13 07:56:33;;;;;;;;;20.00;20.00;25.70;31.10;;;;;;4847263;29;8808;-74
2021/09/13 07:59:00;;;;;;;;;20.33;20.33;25.90;31.20;;;;;;4845005;29;8927;-67
2021/09/13 08:01:26;;;;;;;;;16.33;16.33;26.00;31.00;;;;;;4844531;29;8804;-67
2021/09/13 08:03:52;;;;;;;;;21.00;21.00;26.10;30.90;;;;;;4838919;29;8822;-68
2021/09/13 08:06:18;;;;;;;;;19.67;19.67;26.20;31.10;;;;;;4833424;29;8921;-69
2021/09/13 08:08:43;;;;;;;;;20.33;20.33;26.30;30.40;;;;;;4829795;29;8894;-63
2021/09/13 08:11:09;;;;;;;;;21.00;21.00;26.30;30.10;;;;;;4838739;29;8840;-62
2021/09/13 08:13:39;;;;;;;;;20.00;20.00;26.40;30.30;;;;;;4843419;29;8851;-64
2021/09/13 08:16:05;;;;;;;;;19.00;19.00;26.50;30.10;;;;;;4843419;29;8823;-63
2021/09/13 08:18:31;;;;;;;;;19.00;19.00;26.50;29.60;;;;;;4843533;29;8820;-64
2021/09/13 08:20:57;;;;;;;;;20.33;20.33;26.50;29.70;;;;;;4843243;29;8820;-65
2021/09/13 08:23:23;;;;;;;;;19.33;19.33;26.60;30.10;;;;;;4843356;29;8800;-66
2021/09/13 08:25:49;;;;;;;;;21.00;21.00;26.70;30.10;;;;;;4846871;29;8855;-65
2021/09/13 08:28:19;;;;;;;;;18.00;18.00;26.70;29.70;;;;;;4839585;29;8930;-65
2021/09/13 08:30:46;;;;;;;;;21.33;21.33;26.80;29.80;;;;;;4839967;29;8948;-65
2021/09/13 08:33:12;;;;;;;;;19.33;19.33;26.90;29.60;;;;;;4828721;29;8803;-65
2021/09/13 08:35:37;;;;;;;;;19.00;19.00;27.00;29.60;;;;;;4828537;29;8829;-65
2021/09/13 08:38:03;;;;;;;;;19.00;19.00;27.10;29.40;;;;;;4829947;29;8925;-65
2021/09/13 08:40:29;;;;;;;;;16.67;16.67;27.20;29.40;;;;;;4837978;29;8816;-65
2021/09/13 08:42:57;;;;;;;;;19.33;19.33;27.20;28.80;;;;;;4832704;29;8849;-65
2021/09/13 08:45:37;;;;;;;;;21.67;21.67;27.30;28.80;;;;;;4836152;29;8820;-65
2021/09/13 08:48:16;;;;;;;;;16.67;16.67;27.40;29.00;;;;;;4846643;29;8792;-64
2021/09/13 08:53:10;;;;;;;;;17.67;17.67;27.50;28.70;;;;;;4842177;29;8809;-64
2021/09/13 08:55:36;;;;;;;;;17.67;17.67;27.60;28.90;;;;;;4834522;29;8918;-65
2021/09/13 08:58:03;;;;;;;;;19.67;19.67;27.70;28.60;;;;;;4837011;29;8919;-65
2021/09/13 09:00:30;;;;;;;;;19.00;19.00;27.70;28.40;;;;;;4846722;29;8796;-66
2021/09/13 09:02:58;;;;;;;;;19.67;19.67;27.80;27.90;;;;;;4846368;29;8795;-66
2021/09/13 09:05:24;;;;;;;;;15.33;15.33;27.80;27.70;;;;;;4846584;29;8819;-64
2021/09/13 09:07:54;;;;;;;;;18.33;18.33;27.90;27.70;;;;;;4828159;29;8933;-64
2021/09/13 09:10:26;;;;;;;;;19.00;19.00;28.00;28.00;;;;;;4827708;29;8810;-64
2021/09/13 09:13:15;;;;;;;;;16.33;16.33;28.10;27.70;;;;;;4846146;29;8876;-64
2021/09/13 09:16:00;;;;;;;;;16.00;16.00;28.00;27.30;;;;;;4845181;29;8862;-64
2021/09/13 09:18:56;;;;;;;;;17.00;17.00;28.00;26.90;;;;;;4846039;29;8828;-64
2021/09/13 09:21:25;;;;;;;;;17.33;17.33;28.20;27.00;;;;;;4825309;29;11705;-65
2021/09/13 09:23:58;;;;;;;;;19.67;19.67;28.20;27.30;;;;;;4825591;29;8922;-65
2021/09/13 09:26:26;;;;;;;;;19.33;17.67;28.30;27.70;;;;;;4825426;29;8832;-65
2021/09/13 09:28:52;;;;;;;;;20.67;20.00;28.40;26.90;;;;;;4825536;29;8812;-65
2021/09/13 09:31:38;;;;;;;;;18.33;18.33;28.50;26.60;;;;;;4825351;29;8866;-65
2021/09/13 09:34:14;;;;;;;;;19.00;19.00;28.60;27.00;;;;;;4825445;29;8812;-65
2021/09/13 09:36:40;;;;;;;;;16.00;16.00;28.70;26.70;;;;;;4824722;29;11785;-64
2021/09/13 09:39:12;;;;;;;;;18.67;18.67;28.80;26.90;;;;;;4825319;29;8800;-64
2021/09/13 09:41:43;;;;;;;;;14.67;14.67;28.90;26.50;;;;;;4825224;29;8820;-65
2021/09/13 09:44:10;;;;;;;;;21.67;21.67;28.90;25.90;;;;;;4824071;29;11684;-65
2021/09/13 09:46:43;;;;;;;;;18.67;18.67;29.00;26.40;;;;;;4824868;29;8835;-65
2021/09/13 09:49:15;;;;;;;;;21.33;21.33;29.20;26.50;;;;;;4825057;29;11719;-65
2021/09/13 09:51:50;;;;;;;;;22.00;22.00;29.30;26.70;;;;;;4825277;29;8847;-64
2021/09/13 09:54:22;;;;;;;;;21.33;21.33;29.50;26.50;;;;;;4825134;29;8965;-65
2021/09/13 09:57:00;;;;;;;;;19.33;19.33;29.60;26.00;;;;;;4826853;29;8792;-71
2021/09/13 09:59:32;;;;;;;;;15.00;15.00;29.80;25.40;;;;;;4826752;29;11657;-64
2021/09/13 10:01:58;;;;;;;;;21.00;21.00;30.00;25.90;;;;;;4826919;29;8815;-65
2021/09/13 10:04:28;;;;;;;;;29.00;29.00;30.20;25.60;;;;;;4827077;29;8806;-64
2021/09/13 10:06:55;;;;;;;;;28.00;28.00;30.40;26.10;;;;;;4827050;29;8830;-64
2021/09/13 10:09:22;;;;;;;;;29.67;29.33;30.60;25.90;;;;;;4826719;29;9534;-63
2021/09/13 10:11:51;;;;;;;;;25.67;25.67;30.80;25.50;;;;;;4837914;29;8840;-62
2021/09/13 10:14:20;;;;;;;;;20.33;20.33;30.90;25.20;;;;;;4838045;29;8868;-65
2021/09/13 10:16:47;;;;;;;;;20.33;20.33;31.00;24.10;;;;;;4839097;29;11787;-62
2021/09/13 10:19:14;;;;;;;;;16.67;16.67;31.20;23.80;;;;;;4826591;29;11761;-63
2021/09/13 10:21:40;;;;;;;;;12.67;12.67;31.30;23.50;;;;;;4842435;29;11698;-63
2021/09/13 10:24:13;;;;;;;;;14.00;14.00;31.40;22.70;;;;;;4839141;29;12481;-64
2021/09/13 10:26:41;;;;;;;;;18.33;18.33;31.60;22.50;;;;;;4836258;29;12345;-65
2021/09/13 10:29:07;;;;;;;;;18.67;18.67;31.80;22.30;;;;;;4830593;29;11672;-62
2021/09/13 10:32:07;;;;;;;;;18.67;18.67;31.90;22.50;;;;;;4826399;29;11783;-63
2021/09/13 10:34:35;;;;;;;;;14.33;14.33;32.20;22.40;;;;;;4825639;29;9272;-62
2021/09/13 10:37:16;;;;;;;;;19.67;19.67;32.40;22.10;;;;;;4826363;29;11648;-63
2021/09/13 10:40:02;;;;;;;;;29.00;29.00;32.60;22.20;;;;;;4826386;29;11687;-62
2021/09/13 10:42:31;;;;;;;;;13.25;13.25;32.70;22.90;;;;;;4842491;29;8983;-65
2021/09/13 10:45:08;;;;;;;;;19.75;19.75;32.90;21.80;;;;;;4844508;29;11751;-64
2021/09/13 10:47:34;;;;;;;;;19.00;19.00;33.20;21.70;;;;;;4843495;29;11753;-64
2021/09/13 10:50:13;;;;;;;;;17.50;17.50;33.40;21.10;;;;;;4844590;29;11654;-65
2021/09/13 10:52:39;;;;;;;;;16.75;16.75;33.40;20.50;;;;;;4840636;29;12355;-64
2021/09/13 10:55:07;;;;;;;;;15.25;15.25;33.50;20.30;;;;;;4838261;29;12295;-64
2021/09/13 10:58:00;;;;;;;;;17.75;17.75;33.80;20.40;;;;;;4842915;29;11634;-63
2021/09/13 11:00:41;;;;;;;;;16.25;16.25;34.20;20.30;;;;;;4841577;29;12301;-64
2021/09/13 11:03:34;;;;;;;;;16.00;16.00;34.50;20.60;;;;;;4842639;29;11618;-64
2021/09/13 11:06:11;;;;;;;;;19.00;19.00;34.70;20.20;;;;;;4840377;29;11673;-64
2021/09/13 11:08:39;;;;;;;;;9.75;9.75;34.90;20.40;;;;;;4843040;29;11647;-65
2021/09/13 11:11:26;;;;;;;;;17.50;17.50;35.20;19.70;;;;;;4842801;29;11674;-65
2021/09/13 11:14:21;;;;;;;;;20.00;20.00;35.40;19.30;;;;;;4843759;29;11796;-65
2021/09/13 11:16:48;;;;;;;;;19.25;19.25;35.30;19.00;;;;;;4843526;29;11651;-65
2021/09/13 11:19:15;;;;;;;;;21.00;21.00;35.60;19.10;;;;;;4844072;29;11648;-64
2021/09/13 11:21:44;;;;;;;;;17.50;17.50;35.80;19.00;;;;;;4843862;29;11645;-64
2021/09/13 11:24:30;;;;;;;;;24.33;24.33;36.00;18.60;;;;;;4843812;29;11691;-61
2021/09/13 11:27:00;;;;;;;;;20.75;20.75;36.20;18.70;;;;;;4843704;29;11633;-61
2021/09/13 11:29:32;;;;;;;;;19.75;19.75;36.40;18.80;;;;;;4844071;29;11647;-62
2021/09/13 11:32:10;;;;;;;;;20.00;20.00;36.40;18.10;;;;;;4843684;29;11791;-62
2021/09/13 11:34:35;;;;;;;;;17.75;17.75;36.70;18.60;;;;;;4842652;29;11701;-62
2021/09/13 11:37:23;;;;;;;;;21.00;21.00;36.90;17.70;;;;;;4843498;29;11633;-64
2021/09/13 11:39:53;;;;;;;;;15.75;15.75;37.20;17.90;;;;;;4843703;29;8800;-62
2021/09/13 11:42:29;;;;;;;;;17.00;17.00;37.20;16.90;;;;;;4843621;29;11647;-62
2021/09/13 11:44:58;;;;;;;;;16.75;16.75;37.40;17.10;;;;;;4843597;29;11777;-61
2021/09/13 11:47:26;;;;;;;;;16.75;16.75;37.60;16.70;;;;;;4843688;29;11623;-62
2021/09/13 11:49:54;;;;;;;;;16.00;16.00;37.80;17.40;;;;;;4841989;29;11660;-62
2021/09/13 11:52:23;;;;;;;;;24.33;24.33;38.10;17.10;;;;;;4831063;29;11726;-62
2021/09/13 11:55:02;;;;;;;;;23.25;23.25;38.40;16.90;;;;;;4838373;29;11743;-62
2021/09/13 11:57:39;;;;;;;;;26.33;26.33;38.60;16.90;;;;;;4825344;29;11746;-62
2021/09/13 12:00:17;;;;;;;;;17.00;17.00;38.80;16.80;;;;;;4831580;29;11723;-60
2021/09/13 12:03:03;;;;;;;;;15.50;15.50;38.80;15.90;;;;;;4841172;29;11703;-60
2021/09/13 12:05:31;;;;;;;;;17.25;17.25;38.90;15.70;;;;;;4841567;29;11637;-60
2021/09/13 12:07:59;;;;;;;;;18.25;18.25;39.10;15.90;;;;;;4839998;29;11647;-60
2021/09/13 12:10:30;;;;;;;;;15.00;15.00;39.30;16.00;;;;;;4842176;29;11658;-60
2021/09/13 12:13:01;;;;;;;;;11.50;11.50;39.80;15.50;;;;;;4839588;29;11667;-60
2021/09/13 12:15:31;;;;;;;;;12.50;12.50;40.90;14.10;;;;;;4841916;29;11650;-60
2021/09/13 12:17:57;;;;;;;;;15.25;15.25;45.50;12.60;;;;;;4840080;29;11626;-62
2021/09/13 12:20:33;;;;;;;;;18.25;17.00;48.30;11.30;;;;;;4842229;29;11619;-62
2021/09/13 12:23:03;;;;;;;;;14.00;14.00;49.70;10.80;;;;;;4840275;29;11619;-61
2021/09/13 12:25:38;;;;;;;;;14.00;14.00;52.20;10.20;;;;;;4841809;29;11747;-61
2021/09/13 12:28:04;;;;;;;;;15.00;15.00;52.00;9.50;;;;;;4841505;29;11633;-61
2021/09/13 12:30:35;;;;;;;;;15.00;15.00;54.40;9.30;;;;;;4841643;29;11777;-64
2021/09/13 12:33:08;;;;;;;;;18.00;15.50;55.60;8.50;;;;;;4836677;29;11668;-62
2021/09/13 12:35:42;;;;;;;;;13.00;13.00;56.70;8.30;;;;;;4839865;29;11718;-63
2021/09/13 12:38:12;;;;;;;;;12.00;12.00;57.90;7.60;;;;;;4825039;29;11766;-68
2021/09/13 12:40:59;;;;;;;;;12.50;12.50;57.70;7.10;;;;;;4824788;29;11655;-64
2021/09/13 12:43:25;;;;;;;;;13.50;13.50;58.10;7.00;;;;;;4825090;29;12410;-68
2021/09/13 12:46:10;;;;;;;;;11.67;11.67;58.80;7.10;;;;;;4824625;29;11643;-65
2021/09/13 12:48:43;;;;;;;;;10.75;10.75;59.30;6.70;;;;;;4831752;29;11810;-65